createdAt,value
2022-09-25T00:02:03.144Z,19.70
2022-09-25T00:04:30.061Z,19.33
2022-09-25T00:06:56.819Z,19.53
2022-09-25T00:09:23.938Z,19.77
2022-09-25T00:11:50.988Z,20.53
2022-09-25T00:14:17.922Z,20.97
2022-09-25T00:16:44.842Z,18.90
2022-09-25T00:19:38.000Z,20.03
2022-09-25T00:22:04.829Z,16.83
2022-09-25T00:24:32.357Z,17.93
2022-09-25T00:27:00.757Z,19.00
2022-09-25T00:29:27.767Z,19.67
2022-09-25T00:31:55.825Z,19.83
2022-09-25T00:34:22.583Z,22.50
2022-09-25T00:36:49.417Z,20.83
2022-09-25T00:39:16.307Z,20.33
2022-09-25T00:41:43.186Z,21.47
2022-09-25T00:44:28.679Z,21.87
2022-09-25T00:46:55.578Z,22.70
2022-09-25T00:49:24.711Z,23.80
2022-09-25T00:51:59.845Z,22.93
2022-09-25T00:54:32.015Z,22.47
2022-09-25T00:57:01.319Z,23.20
2022-09-25T00:59:30.278Z,23.23
2022-09-25T01:01:58.175Z,24.57
2022-09-25T01:04:26.600Z,23.63
2022-09-25T01:06:54.110Z,26.80
2022-09-25T01:09:21.026Z,26.40
2022-09-25T01:11:47.995Z,26.40
2022-09-25T01:14:17.540Z,25.47
2022-09-25T01:17:16.890Z,22.37
2022-09-25T01:19:53.142Z,22.80
2022-09-25T01:22:38.613Z,20.70
2022-09-25T01:25:24.036Z,22.23
2022-09-25T01:27:55.939Z,21.90
2022-09-25T01:30:22.921Z,23.67
2022-09-25T01:32:49.698Z,22.93
2022-09-25T01:35:16.637Z,24.03
2022-09-25T01:37:46.478Z,23.93
2022-09-25T01:40:23.034Z,21.83
2022-09-25T01:42:53.471Z,22.67
2022-09-25T01:45:22.259Z,24.80
2022-09-25T01:47:50.361Z,24.60
2022-09-25T01:50:24.427Z,23.67
2022-09-25T01:52:55.102Z,24.43
2022-09-25T01:55:28.488Z,22.07
2022-09-25T01:58:08.778Z,21.07
2022-09-25T02:00:38.100Z,22.03
2022-09-25T02:03:11.627Z,20.97
2022-09-25T02:05:42.584Z,21.93
2022-09-25T02:08:12.727Z,22.53
2022-09-25T02:10:49.251Z,23.20
2022-09-25T02:13:18.073Z,23.53
2022-09-25T02:15:48.250Z,23.20
2022-09-25T02:18:34.755Z,23.40
2022-09-25T02:21:05.407Z,22.33
2022-09-25T02:23:48.235Z,21.53
2022-09-25T02:26:19.104Z,21.97
2022-09-25T02:28:45.892Z,21.70
2022-09-25T02:31:13.213Z,24.40
2022-09-25T02:33:40.028Z,22.67
2022-09-25T02:36:06.983Z,21.73
2022-09-25T02:38:34.822Z,21.70
2022-09-25T02:41:10.168Z,21.77
2022-09-25T02:43:38.597Z,20.47
2022-09-25T02:46:16.225Z,21.17
2022-09-25T02:49:03.399Z,21.63
2022-09-25T02:51:50.390Z,21.80
2022-09-25T02:54:21.398Z,21.13
2022-09-25T02:56:51.961Z,22.97
2022-09-25T02:59:21.001Z,22.30
2022-09-25T03:01:49.406Z,22.57
2022-09-25T03:04:17.928Z,24.23
2022-09-25T03:06:45.630Z,22.57
2022-09-25T03:09:13.648Z,23.13
2022-09-25T03:11:43.395Z,23.90
2022-09-25T03:14:11.002Z,22.50
2022-09-25T03:16:43.877Z,22.17
2022-09-25T03:19:10.804Z,21.97
2022-09-25T03:21:37.567Z,22.00
2022-09-25T03:24:05.137Z,23.43
2022-09-25T03:26:31.892Z,22.80
2022-09-25T03:29:02.430Z,23.40
2022-09-25T03:31:30.361Z,24.10
2022-09-25T03:33:57.517Z,22.83
2022-09-25T03:36:25.695Z,24.27
2022-09-25T03:38:53.768Z,24.63
2022-09-25T03:41:21.559Z,24.37
2022-09-25T03:43:52.094Z,25.00
2022-09-25T03:46:20.417Z,24.63
2022-09-25T03:48:47.313Z,25.73
2022-09-25T03:51:14.366Z,24.23
2022-09-25T03:53:41.504Z,26.37
2022-09-25T03:56:11.128Z,26.67
2022-09-25T03:58:38.285Z,23.87
2022-09-25T04:01:05.778Z,24.03
2022-09-25T04:03:33.187Z,24.53
2022-09-25T04:06:01.372Z,24.30
2022-09-25T04:08:28.959Z,23.63
2022-09-25T04:11:02.096Z,23.90
2022-09-25T04:13:30.365Z,23.03
2022-09-25T04:15:57.705Z,22.80
2022-09-25T04:18:25.031Z,22.00
2022-09-25T04:20:51.962Z,23.10
2022-09-25T04:23:18.877Z,21.83
2022-09-25T04:25:46.066Z,22.07
2022-09-25T04:28:12.932Z,22.30
2022-09-25T04:30:39.694Z,22.13
2022-09-25T04:33:25.387Z,21.23
2022-09-25T04:35:52.249Z,21.83
2022-09-25T04:38:19.042Z,23.10
2022-09-25T04:40:46.251Z,26.57
2022-09-25T04:43:13.255Z,25.27
2022-09-25T04:45:40.044Z,24.30
2022-09-25T04:48:06.987Z,24.03
2022-09-25T04:50:34.255Z,23.77
2022-09-25T04:53:03.803Z,21.97
2022-09-25T04:55:30.884Z,22.20
2022-09-25T04:57:59.604Z,23.63
2022-09-25T05:00:30.295Z,22.10
2022-09-25T05:02:57.571Z,22.20
2022-09-25T05:05:28.307Z,22.50
2022-09-25T05:07:56.139Z,22.00
2022-09-25T05:10:23.869Z,22.73
2022-09-25T05:12:54.780Z,24.57
2022-09-25T05:15:22.029Z,23.87
2022-09-25T05:17:49.106Z,23.70
2022-09-25T05:20:17.279Z,22.77
2022-09-25T05:22:44.564Z,23.57
2022-09-25T05:25:11.973Z,23.13
2022-09-25T05:27:38.932Z,23.37
2022-09-25T05:30:06.480Z,22.40
2022-09-25T05:32:33.237Z,22.73
2022-09-25T05:35:00.089Z,21.97
2022-09-25T05:37:26.892Z,23.07
2022-09-25T05:39:53.701Z,24.93
2022-09-25T05:42:20.503Z,24.33
2022-09-25T05:44:47.368Z,23.47
2022-09-25T05:47:14.291Z,24.53
2022-09-25T05:49:41.163Z,23.87
2022-09-25T05:52:07.978Z,25.27
2022-09-25T05:54:34.791Z,24.67
2022-09-25T05:57:01.699Z,24.60
2022-09-25T05:59:28.993Z,24.20
2022-09-25T06:01:55.906Z,25.23
2022-09-25T06:04:22.846Z,24.53
2022-09-25T06:06:49.833Z,23.53
2022-09-25T06:09:16.658Z,23.77
2022-09-25T06:11:47.576Z,23.17
2022-09-25T06:14:14.733Z,25.63
2022-09-25T06:16:41.577Z,24.47
2022-09-25T06:19:08.752Z,24.90
2022-09-25T06:21:35.528Z,25.23
2022-09-25T06:24:02.467Z,24.93
2022-09-25T06:26:29.292Z,25.00
2022-09-25T06:29:00.981Z,22.53
2022-09-25T06:31:30.450Z,22.17
2022-09-25T06:33:57.751Z,22.77
2022-09-25T06:36:24.615Z,22.70
2022-09-25T06:38:54.648Z,21.63
2022-09-25T06:41:22.107Z,21.87
2022-09-25T06:43:50.314Z,21.43
2022-09-25T06:46:18.693Z,21.83
2022-09-25T06:48:50.364Z,21.73
2022-09-25T06:51:18.795Z,21.70
2022-09-25T06:53:45.542Z,21.17
2022-09-25T06:56:12.504Z,21.60
2022-09-25T06:58:39.359Z,21.53
2022-09-25T07:01:10.538Z,20.50
2022-09-25T07:03:48.515Z,20.67
2022-09-25T07:06:15.344Z,21.13
2022-09-25T07:08:43.848Z,20.80
2022-09-25T07:11:12.456Z,20.60
2022-09-25T07:13:39.887Z,21.30
2022-09-25T07:16:14.380Z,20.70
2022-09-25T07:18:41.335Z,20.37
2022-09-25T07:21:12.131Z,19.57
2022-09-25T07:23:39.268Z,21.67
2022-09-25T07:26:07.347Z,20.40
2022-09-25T07:28:34.213Z,20.07
2022-09-25T07:31:10.294Z,20.07
2022-09-25T07:33:37.274Z,19.20
2022-09-25T07:36:04.138Z,19.50
2022-09-25T07:38:31.000Z,19.47
2022-09-25T07:40:58.374Z,19.57
2022-09-25T07:43:25.208Z,20.10
2022-09-25T07:45:54.980Z,18.33
2022-09-25T07:48:22.201Z,18.90
2022-09-25T07:50:50.307Z,20.30
2022-09-25T07:53:20.560Z,18.83
2022-09-25T07:55:47.687Z,17.57
2022-09-25T07:58:14.873Z,17.57
2022-09-25T08:00:41.697Z,18.30
2022-09-25T08:03:08.999Z,17.93
2022-09-25T08:05:35.818Z,18.73
2022-09-25T08:08:03.245Z,17.83
2022-09-25T08:10:30.293Z,17.77
2022-09-25T08:12:57.101Z,16.53
2022-09-25T08:15:24.106Z,15.67
2022-09-25T08:17:51.440Z,15.80
2022-09-25T08:20:18.372Z,15.27
2022-09-25T08:22:45.244Z,15.83
2022-09-25T08:25:13.186Z,15.10
2022-09-25T08:27:41.229Z,15.10
2022-09-25T08:30:09.227Z,15.03
2022-09-25T08:32:36.692Z,15.50
2022-09-25T08:35:04.599Z,15.80
2022-09-25T08:37:32.303Z,14.83
2022-09-25T08:39:59.608Z,15.73
2022-09-25T08:42:35.151Z,14.90
2022-09-25T08:45:22.951Z,13.63
2022-09-25T08:48:11.187Z,13.53
2022-09-25T08:50:38.059Z,13.57
2022-09-25T08:53:12.602Z,13.07
2022-09-25T08:55:59.822Z,14.73
2022-09-25T08:58:32.549Z,15.00
2022-09-25T09:01:02.244Z,13.50
2022-09-25T09:03:32.002Z,14.07
2022-09-25T09:06:06.074Z,12.63
2022-09-25T09:08:34.690Z,12.30
2022-09-25T09:11:07.937Z,13.33
2022-09-25T09:13:48.602Z,11.97
2022-09-25T09:16:21.773Z,12.57
2022-09-25T09:18:48.821Z,12.80
2022-09-25T09:21:34.029Z,12.80
2022-09-25T09:24:17.464Z,11.30
2022-09-25T09:27:04.340Z,11.83
2022-09-25T09:29:54.649Z,11.23
2022-09-25T09:32:24.459Z,10.47
2022-09-25T09:35:05.855Z,10.13
2022-09-25T09:37:51.812Z,8.17
2022-09-25T09:40:27.210Z,8.03
2022-09-25T09:43:09.520Z,7.63
2022-09-25T09:45:36.342Z,8.30
2022-09-25T09:48:18.431Z,7.90
2022-09-25T09:50:52.441Z,6.27
2022-09-25T09:53:40.006Z,7.17
2022-09-25T09:56:14.861Z,7.37
2022-09-25T09:58:47.959Z,8.03
2022-09-25T10:01:39.773Z,6.80
2022-09-25T10:04:05.500Z,6.00
2022-09-25T10:06:35.015Z,6.10
2022-09-25T10:09:01.939Z,6.13
2022-09-25T10:11:29.065Z,5.53
2022-09-25T10:14:00.080Z,4.63
2022-09-25T10:16:27.517Z,5.50
2022-09-25T10:18:57.523Z,6.40
2022-09-25T10:21:25.972Z,6.00
2022-09-25T10:23:53.864Z,6.10
2022-09-25T10:26:23.647Z,5.00
2022-09-25T10:28:50.787Z,4.80
2022-09-25T10:31:18.991Z,5.23
2022-09-25T10:34:12.143Z,5.27
2022-09-25T10:36:40.723Z,3.93
2022-09-25T10:39:43.626Z,5.27
2022-09-25T10:42:30.413Z,4.53
2022-09-25T10:44:58.140Z,4.00
2022-09-25T10:47:43.800Z,4.27
2022-09-25T10:50:16.425Z,3.23
2022-09-25T10:52:50.721Z,3.47
2022-09-25T10:55:20.899Z,2.37
2022-09-25T10:57:48.391Z,2.57
2022-09-25T11:00:22.822Z,2.43
2022-09-25T11:02:53.231Z,3.20
2022-09-25T11:05:21.577Z,2.80
2022-09-25T11:07:55.303Z,3.33
2022-09-25T11:10:23.744Z,3.60
2022-09-25T11:12:51.340Z,3.07
2022-09-25T11:15:21.708Z,3.20
2022-09-25T11:17:50.258Z,3.50
2022-09-25T11:20:17.904Z,3.50
2022-09-25T11:22:48.160Z,3.40
2022-09-25T11:25:22.310Z,3.23
2022-09-25T11:27:53.608Z,3.13
2022-09-25T11:30:21.946Z,2.63
2022-09-25T11:33:07.346Z,2.83
2022-09-25T11:35:37.587Z,2.87
2022-09-25T11:38:17.212Z,2.50
2022-09-25T11:41:09.119Z,2.70
2022-09-25T11:44:11.316Z,2.40
2022-09-25T11:46:56.853Z,2.60
2022-09-25T11:49:25.332Z,2.93
2022-09-25T11:52:10.846Z,3.33
2022-09-25T11:54:46.632Z,2.93
2022-09-25T11:57:16.771Z,2.40
2022-09-25T11:59:44.175Z,2.97
2022-09-25T12:02:21.050Z,2.70
2022-09-25T12:05:06.810Z,2.70
2022-09-25T12:07:58.294Z,2.50
2022-09-25T12:10:45.433Z,2.40
2022-09-25T12:13:12.496Z,1.97
2022-09-25T12:15:42.942Z,2.53
2022-09-25T12:18:09.768Z,2.40
2022-09-25T12:20:42.830Z,2.70
2022-09-25T12:23:29.665Z,2.53
2022-09-25T12:26:00.090Z,2.73
2022-09-25T12:28:36.453Z,3.40
2022-09-25T12:31:05.559Z,3.00
2022-09-25T12:33:41.554Z,2.80
2022-09-25T12:36:13.078Z,3.03
2022-09-25T12:38:44.582Z,2.90
2022-09-25T12:41:24.308Z,3.30
2022-09-25T12:44:00.794Z,2.40
2022-09-25T12:46:30.568Z,3.07
2022-09-25T12:49:15.873Z,2.87
2022-09-25T12:51:54.435Z,3.03
2022-09-25T12:54:24.122Z,3.30
2022-09-25T12:56:52.208Z,3.00
2022-09-25T12:59:24.007Z,3.10
2022-09-25T13:02:00.183Z,3.27
2022-09-25T13:04:26.983Z,2.97
2022-09-25T13:06:58.366Z,2.97
2022-09-25T13:09:35.897Z,2.73
2022-09-25T13:12:09.244Z,3.10
2022-09-25T13:14:42.959Z,3.00
2022-09-25T13:17:11.255Z,3.37
2022-09-25T13:19:38.095Z,3.00
2022-09-25T13:22:10.456Z,2.97
2022-09-25T13:24:39.761Z,3.13
2022-09-25T13:27:10.181Z,2.80
2022-09-25T13:29:39.048Z,3.27
2022-09-25T13:32:25.263Z,3.13
2022-09-25T13:34:55.659Z,3.30
2022-09-25T13:37:25.506Z,2.90
2022-09-25T13:40:11.397Z,3.43
2022-09-25T13:42:42.287Z,3.13
2022-09-25T13:45:30.059Z,4.37
2022-09-25T13:48:10.395Z,3.40
2022-09-25T13:50:38.590Z,2.93
2022-09-25T13:53:23.864Z,3.43
2022-09-25T13:55:50.753Z,3.37
2022-09-25T13:58:24.948Z,3.47
2022-09-25T14:00:57.857Z,3.50
2022-09-25T14:03:32.167Z,3.07
2022-09-25T14:05:59.896Z,3.53
2022-09-25T14:08:28.077Z,3.70
2022-09-25T14:10:56.428Z,3.50
2022-09-25T14:13:24.708Z,3.63
2022-09-25T14:15:52.133Z,3.57
2022-09-25T14:18:21.104Z,3.80
2022-09-25T14:20:49.675Z,3.57
2022-09-25T14:23:16.554Z,4.30
2022-09-25T14:25:45.353Z,4.20
2022-09-25T14:28:18.635Z,3.80
2022-09-25T14:30:51.704Z,3.50
2022-09-25T14:33:38.806Z,4.00
2022-09-25T14:36:09.430Z,4.10
2022-09-25T14:38:56.573Z,4.10
2022-09-25T14:41:23.742Z,4.80
2022-09-25T14:44:10.878Z,4.37
2022-09-25T14:46:37.769Z,4.50
2022-09-25T14:49:08.927Z,4.00
2022-09-25T14:51:43.921Z,4.07
2022-09-25T14:54:16.042Z,4.10
2022-09-25T14:56:48.808Z,4.17
2022-09-25T14:59:33.704Z,4.17
2022-09-25T15:02:03.165Z,3.63
2022-09-25T15:04:32.481Z,3.07
2022-09-25T15:07:09.133Z,3.27
2022-09-25T15:09:47.372Z,3.07
2022-09-25T15:12:17.948Z,3.37
2022-09-25T15:15:01.068Z,3.27
2022-09-25T15:17:29.320Z,3.30
2022-09-25T15:19:59.187Z,3.50
2022-09-25T15:22:29.988Z,3.10
2022-09-25T15:24:59.343Z,3.00
2022-09-25T15:27:27.929Z,3.07
2022-09-25T15:29:55.702Z,3.73
2022-09-25T15:32:28.707Z,3.33
2022-09-25T15:35:16.039Z,3.27
2022-09-25T15:37:43.276Z,3.00
2022-09-25T15:40:15.939Z,3.37
2022-09-25T15:42:46.655Z,3.83
2022-09-25T15:45:32.284Z,3.87
2022-09-25T15:47:59.791Z,3.33
2022-09-25T15:50:28.173Z,3.20
2022-09-25T15:52:59.644Z,3.50
2022-09-25T15:55:28.631Z,3.57
2022-09-25T15:57:56.765Z,4.20
2022-09-25T16:00:44.296Z,3.90
2022-09-25T16:03:35.911Z,3.70
2022-09-25T16:06:04.041Z,4.23
2022-09-25T16:08:36.062Z,3.60
2022-09-25T16:11:04.991Z,4.00
2022-09-25T16:13:33.062Z,4.00
2022-09-25T16:16:00.040Z,3.80
2022-09-25T16:18:32.431Z,3.40
2022-09-25T16:21:09.216Z,4.07
2022-09-25T16:23:38.428Z,4.20
2022-09-25T16:26:06.205Z,3.60
2022-09-25T16:28:35.100Z,3.93
2022-09-25T16:31:06.162Z,3.90
2022-09-25T16:33:38.821Z,3.73
2022-09-25T16:36:16.741Z,3.90
2022-09-25T16:39:04.719Z,4.60
2022-09-25T16:41:31.623Z,3.83
2022-09-25T16:44:17.564Z,4.33
2022-09-25T16:46:47.525Z,4.07
2022-09-25T16:49:14.670Z,3.83
2022-09-25T16:51:45.637Z,3.83
2022-09-25T16:54:16.727Z,3.93
2022-09-25T16:56:44.526Z,4.00
2022-09-25T16:59:25.511Z,4.47
2022-09-25T17:01:55.961Z,4.30
2022-09-25T17:04:24.160Z,4.57
2022-09-25T17:06:51.332Z,4.63
2022-09-25T17:09:18.566Z,4.43
2022-09-25T17:11:46.181Z,4.80
2022-09-25T17:14:26.431Z,4.63
2022-09-25T17:16:54.397Z,4.20
2022-09-25T17:19:21.823Z,4.40
2022-09-25T17:21:51.503Z,5.13
2022-09-25T17:24:20.398Z,5.23
2022-09-25T17:26:47.531Z,5.50
2022-09-25T17:29:14.514Z,5.57
2022-09-25T17:31:41.671Z,5.83
2022-09-25T17:34:18.955Z,5.60
2022-09-25T17:36:46.151Z,6.40
2022-09-25T17:39:13.283Z,5.63
2022-09-25T17:41:40.427Z,5.70
2022-09-25T17:44:09.217Z,6.43
2022-09-25T17:46:36.493Z,5.70
2022-09-25T17:49:03.912Z,6.00
2022-09-25T17:51:31.083Z,6.30
2022-09-25T17:53:59.338Z,6.37
2022-09-25T17:56:29.578Z,6.60
2022-09-25T17:59:00.723Z,7.00
2022-09-25T18:01:28.835Z,6.90
2022-09-25T18:03:56.710Z,6.00
2022-09-25T18:06:24.145Z,6.30
2022-09-25T18:08:51.568Z,6.33
2022-09-25T18:11:18.573Z,6.30
2022-09-25T18:13:45.751Z,6.97
2022-09-25T18:16:16.613Z,6.27
2022-09-25T18:19:02.992Z,6.50
2022-09-25T18:21:48.536Z,6.43
2022-09-25T18:24:15.629Z,7.27
2022-09-25T18:26:43.525Z,6.67
2022-09-25T18:29:15.334Z,7.10
2022-09-25T18:31:42.445Z,7.00
2022-09-25T18:34:09.399Z,6.53
2022-09-25T18:36:36.214Z,7.67
2022-09-25T18:39:03.082Z,7.53
2022-09-25T18:41:31.137Z,9.90
2022-09-25T18:43:58.287Z,9.73
2022-09-25T18:46:25.110Z,9.47
2022-09-25T18:48:53.729Z,8.53
2022-09-25T18:51:20.576Z,8.67
2022-09-25T18:53:51.665Z,9.20
2022-09-25T18:56:18.816Z,8.47
2022-09-25T18:58:45.872Z,7.87
2022-09-25T19:01:12.840Z,8.67
2022-09-25T19:03:41.090Z,7.17
2022-09-25T19:06:07.958Z,8.33
2022-09-25T19:08:36.373Z,8.70
2022-09-25T19:11:03.229Z,8.77
2022-09-25T19:13:30.237Z,8.63
2022-09-25T19:15:59.183Z,8.97
2022-09-25T19:18:26.083Z,9.17
2022-09-25T19:20:54.500Z,9.17
2022-09-25T19:23:25.572Z,8.83
2022-09-25T19:25:53.545Z,8.10
2022-09-25T19:28:23.778Z,9.80
2022-09-25T19:31:05.258Z,9.47
2022-09-25T19:33:33.542Z,10.10
2022-09-25T19:36:01.251Z,9.60
2022-09-25T19:38:31.491Z,9.97
2022-09-25T19:40:58.492Z,8.93
2022-09-25T19:43:25.369Z,9.80
2022-09-25T19:45:53.804Z,10.50
2022-09-25T19:48:21.471Z,10.83
2022-09-25T19:50:48.538Z,10.83
2022-09-25T19:53:15.670Z,10.53
2022-09-25T19:55:43.831Z,11.23
2022-09-25T19:58:11.158Z,11.50
2022-09-25T20:00:42.070Z,11.37
2022-09-25T20:03:10.077Z,11.60
2022-09-25T20:05:41.429Z,11.70
2022-09-25T20:08:09.133Z,11.80
2022-09-25T20:10:36.915Z,11.90
2022-09-25T20:13:04.084Z,12.27
2022-09-25T20:15:31.943Z,12.73
2022-09-25T20:17:58.787Z,11.93
2022-09-25T20:20:27.813Z,12.80
2022-09-25T20:22:55.249Z,12.37
2022-09-25T20:25:22.697Z,12.97
2022-09-25T20:27:50.097Z,13.47
2022-09-25T20:30:17.245Z,12.27
2022-09-25T20:32:44.061Z,12.80
2022-09-25T20:35:11.279Z,13.07
2022-09-25T20:37:38.146Z,12.23
2022-09-25T20:40:05.223Z,12.60
2022-09-25T20:42:33.906Z,13.03
2022-09-25T20:45:00.799Z,12.93
2022-09-25T20:47:33.537Z,13.60
2022-09-25T20:50:00.834Z,11.60
2022-09-25T20:52:28.072Z,13.33
2022-09-25T20:54:56.574Z,12.83
2022-09-25T20:57:23.398Z,12.87
2022-09-25T20:59:50.337Z,12.93
2022-09-25T21:02:17.243Z,12.23
2022-09-25T21:04:45.144Z,11.93
2022-09-25T21:07:16.617Z,12.60
2022-09-25T21:09:43.885Z,12.07
2022-09-25T21:12:11.018Z,13.20
2022-09-25T21:14:37.997Z,12.50
2022-09-25T21:17:05.057Z,12.73
2022-09-25T21:19:32.386Z,12.53
2022-09-25T21:21:59.204Z,12.70
2022-09-25T21:24:26.012Z,12.77
2022-09-25T21:26:53.043Z,12.07
2022-09-25T21:29:20.147Z,11.97
2022-09-25T21:31:50.169Z,11.83
2022-09-25T21:34:17.930Z,12.93
2022-09-25T21:36:44.852Z,12.67
2022-09-25T21:39:11.935Z,12.10
2022-09-25T21:41:39.127Z,12.30
2022-09-25T21:44:07.269Z,13.10
2022-09-25T21:46:35.008Z,13.10
2022-09-25T21:49:03.424Z,12.63
2022-09-25T21:51:34.624Z,12.63
2022-09-25T21:54:01.790Z,11.83
2022-09-25T21:56:29.390Z,11.27
2022-09-25T21:58:56.924Z,11.93
2022-09-25T22:01:25.318Z,11.50
2022-09-25T22:03:55.562Z,12.60
2022-09-25T22:06:29.733Z,12.30
2022-09-25T22:08:58.614Z,11.77
2022-09-25T22:11:25.712Z,9.93
2022-09-25T22:13:53.178Z,10.80
2022-09-25T22:16:24.242Z,12.10
2022-09-25T22:18:52.834Z,13.00
2022-09-25T22:21:21.262Z,12.37
2022-09-25T22:23:48.218Z,12.33
2022-09-25T22:26:16.023Z,10.60
2022-09-25T22:28:43.338Z,12.03
2022-09-25T22:31:12.128Z,9.97
2022-09-25T22:33:39.598Z,11.83
2022-09-25T22:36:07.717Z,9.63
2022-09-25T22:38:34.713Z,11.53
2022-09-25T22:41:05.541Z,10.80
2022-09-25T22:43:32.774Z,11.97
2022-09-25T22:45:59.772Z,11.37
2022-09-25T22:48:26.800Z,11.40
2022-09-25T22:51:00.961Z,11.57
2022-09-25T22:53:31.823Z,12.30
2022-09-25T22:56:17.700Z,11.80
2022-09-25T22:58:48.967Z,13.50
2022-09-25T23:01:18.051Z,9.27
2022-09-25T23:03:45.201Z,10.53
2022-09-25T23:06:12.210Z,11.40
2022-09-25T23:08:39.066Z,10.97
2022-09-25T23:11:08.319Z,11.10
2022-09-25T23:13:36.381Z,11.23
2022-09-25T23:16:07.550Z,11.00
2022-09-25T23:18:38.183Z,10.23
2022-09-25T23:21:05.093Z,10.00
2022-09-25T23:23:31.999Z,10.80
2022-09-25T23:26:03.571Z,11.90
2022-09-25T23:28:32.185Z,12.13
2022-09-25T23:31:04.384Z,11.93
2022-09-25T23:33:31.282Z,11.40
2022-09-25T23:36:01.871Z,12.07
2022-09-25T23:38:29.620Z,11.30
2022-09-25T23:40:56.523Z,12.00
2022-09-25T23:43:23.372Z,11.87
2022-09-25T23:45:50.782Z,12.50
2022-09-25T23:48:17.687Z,13.23
2022-09-25T23:50:44.636Z,12.07
2022-09-25T23:53:11.637Z,12.53
2022-09-25T23:55:39.237Z,11.03
2022-09-25T23:58:06.151Z,12.40
